Flight Track Log - Related Links

Times and Time Zones

All times are in EDT time to prevent confusion due to time zone crossing. See the LOF3376 flight status page for this flight to view local times or setup timezone preferences in your user account.

Time Position Orientation Groundspeed Altitude Reporting Facility
EDT Latitude Longitude Course Direction KTS MPH feet Rate Location/Type
Sun 06:51:09 AM 38.7667 -90.4167 356° North 153 176 1,200  Level Gateway (St. Louis) TRACON
Sun 06:52:09 AM 38.8000 -90.4500 322° Northwest 206 237 3,200 2,100 Climbing Gateway (St. Louis) TRACON
Sun 06:52:49 AM 38.8361 -90.4442 North 221 254 4,700 1,920 Climbing Kansas City Center
Sun 06:53:49 AM 38.8875 -90.4233 18° North 230 265 6,400 1,950 Climbing Kansas City Center
Sun 06:54:00 AM 38.9316 -90.2000 North  Level FlightAware Approximate
Sun 06:54:49 AM 38.9556 -90.3947 18° North 249 287 8,600  Level Kansas City Center
Sun 06:55:00 AM 39.0130 -90.2000 North  Level FlightAware Approximate
Sun 06:55:49 AM 39.0278 -90.3650 18° North 266 306 10,800  Level Kansas City Center
Sun 06:56:00 AM 39.0941 -90.2077 356° North  Level FlightAware Approximate
Sun 06:56:50 AM 39.1231 -90.3256 18° North 296 341 12,300  Level Kansas City Center
Sun 06:57:50 AM 39.2092 -90.2886 18° North 323 372 13,600 1,250 Climbing Kansas City Center
Sun 06:58:50 AM 39.3003 -90.2506 18° North 339 390 14,800 1,200 Climbing Kansas City Center
Sun 06:59:50 AM 39.3958 -90.2139 17° North 352 405 16,000 1,200 Climbing Kansas City Center
Sun 07:00:50 AM 39.4947 -90.1919 10° North 359 413 17,200 1,200 Climbing Kansas City Center
Sun 07:01:50 AM 39.5950 -90.1683 10° North 364 419 18,400 1,190 Climbing Kansas City Center
Sun 07:02:51 AM 39.6983 -90.1467 North 373 429 19,600 1,140 Climbing Kansas City Center
Sun 07:03:51 AM 39.7922 -90.1256 10° North 375 432 20,700 771 Climbing Kansas City Center
Sun 07:04:40 AM 39.8772 -90.1064 10° North 385 443 21,000 165 Climbing Chicago Center
Sun 07:05:40 AM 39.9878 -90.0803 10° North 401 461 21,000  Level Chicago Center
Sun 07:06:40 AM 40.0969 -90.0503 12° North 402 463 21,000  Level Chicago Center
Sun 07:07:40 AM 40.2036 -90.0033 19° North 404 465 21,000  Level Chicago Center
Sun 07:08:41 AM 40.3111 -89.9575 18° North 405 466 21,000  Level Chicago Center
Sun 07:09:41 AM 40.4181 -89.9108 18° North 406 467 21,000  Level Chicago Center
Sun 07:10:42 AM 40.5422 -89.8572 18° North 406 467 21,000  Level Chicago Center
Sun 07:11:42 AM 40.6489 -89.8106 18° North 406 467 21,000  Level Chicago Center
Sun 07:12:42 AM 40.7561 -89.7642 18° North 404 465 21,000  Level Chicago Center
Sun 07:13:43 AM 40.8625 -89.7178 18° North 402 463 21,000  Level Chicago Center
Sun 07:14:43 AM 40.9675 -89.6725 18° North 399 459 21,000 -694 Level Chicago Center
Sun 07:15:44 AM 41.0611 -89.6308 19° North 375 432 19,600 -1,438 Descending Chicago Center
Sun 07:16:44 AM 41.1525 -89.5806 22° Northeast 367 422 18,100 -1,587 Descending Chicago Center
Sun 07:17:45 AM 41.2083 -89.4708 56° Northeast 364 419 16,400 -1,339 Descending Chicago Center
Sun 07:18:45 AM 41.2575 -89.3483 62° Northeast 368 423 15,400 -1,041 Descending Chicago Center
Sun 07:19:46 AM 41.3056 -89.2250 63° Northeast 376 433 14,300 -984 Descending Chicago Center
Sun 07:20:47 AM 41.3528 -89.1042 62° Northeast 372 428 13,400 -1,041 Descending Chicago Center
Sun 07:21:47 AM 41.4014 -88.9861 61° Northeast 367 422 12,200 -1,140 Descending Chicago Center
Sun 07:22:48 AM 41.4478 -88.8689 62° Northeast 360 414 11,100 -590 Descending Chicago Center
Sun 07:23:49 AM 41.4928 -88.7547 62° Northeast 353 406 11,000 -50 Descending Chicago Center
Sun 07:24:49 AM 41.5383 -88.6411 62° Northeast 349 402 11,000  Level Chicago Center
Sun 07:25:50 AM 41.5847 -88.5239 62° Northeast 355 409 11,000 -295 Level Chicago Center
Sun 07:26:51 AM 41.6378 -88.4147 57° Northeast 352 405 10,400 -496 Descending Chicago Center
Sun 07:27:51 AM 41.6981 -88.3119 52° Northeast 351 404 10,000 -198 Descending Chicago Center
Sun 07:28:52 AM 41.7572 -88.2139 51° Northeast 343 395 10,000 -590 Level Chicago Center
Sun 07:29:53 AM 41.8200 -88.1458 39° Northeast 297 342 8,800 -1,438 Descending Chicago Center
Sun 07:30:53 AM 41.9142 -88.1517 357° North 283 326 7,100 -1,190 Descending Chicago Center
Sun 07:31:54 AM 41.9892 -88.1572 357° North 274 315 6,400 -885 Descending Chicago Center
Sun 07:32:55 AM 42.0617 -88.1633 356° North 265 305 5,300 -1,041 Descending Chicago Center
Sun 07:33:55 AM 42.1192 -88.1219 28° Northeast 249 287 4,300 -936 Descending Chicago Center
Sun 07:34:44 AM 42.1000 -88.0667 115° Southeast 208 239 3,600 -857 Descending Chicago TRACON

Login

Don't have an account? Register now (free) for customized features, flight alerts, and more!